Time;durP1;ratioP1;P1;durP2;ratioP2;P2;SDS_P1;SDS_P2;PMS_P1;PMS_P2;Temp;Humidity;BMP_temperature;BMP_pressure;BME280_temperature;BME280_humidity;BME280_pressure;Samples;Min_cycle;Max_cycle;Signal;HPM_P1;HPM_P2
2023/10/09 00:03:53;;;;;;;2.13;2.03;;;;;;;12.90;100.00;102054.09;6202657;28;20233;-75
2023/10/09 00:07:16;;;;;;;2.73;1.77;;;;;;;12.91;100.00;102036.88;6184191;28;20395;-74
2023/10/09 00:10:45;;;;;;;1.60;1.20;;;;;;;12.88;100.00;102031.69;6173156;28;20663;-75
2023/10/09 00:14:06;;;;;;;2.17;1.80;;;;;;;12.75;100.00;101999.34;6178866;28;20632;-74
2023/10/09 00:17:31;;;;;;;2.33;1.87;;;;;;;12.71;100.00;101990.63;6180698;28;20412;-74
2023/10/09 00:20:54;;;;;;;6.37;3.63;;;;;;;12.72;100.00;101967.13;6180793;28;20530;-75
2023/10/09 00:24:23;;;;;;;5.50;2.47;;;;;;;12.72;100.00;101967.97;6202291;28;20252;-74
2023/10/09 00:27:46;;;;;;;2.70;2.13;;;;;;;12.72;100.00;101959.84;6203684;28;20225;-75
2023/10/09 00:31:07;;;;;;;2.03;1.77;;;;;;;12.68;100.00;101944.03;6201678;28;20290;-75
2023/10/09 00:34:28;;;;;;;2.63;1.70;;;;;;;12.68;100.00;101947.56;6194782;28;20241;-74
2023/10/09 00:37:56;;;;;;;2.77;2.07;;;;;;;12.68;100.00;101935.91;6185312;28;20265;-75
2023/10/09 00:41:22;;;;;;;2.43;2.07;;;;;;;12.54;100.00;101949.66;6196096;28;20595;-76
2023/10/09 00:44:48;;;;;;;2.57;1.77;;;;;;;12.49;100.00;101941.94;6205550;28;20237;-75
2023/10/09 00:48:09;;;;;;;2.57;2.27;;;;;;;12.35;100.00;101933.19;6203711;28;20225;-77
2023/10/09 00:51:35;;;;;;;1.67;1.57;;;;;;;12.41;100.00;101928.13;6200078;28;20237;-75
2023/10/09 00:55:01;;;;;;;2.80;1.80;;;;;;;12.39;100.00;101904.91;6203863;28;20263;-76
2023/10/09 00:58:24;;;;;;;3.27;2.27;;;;;;;12.29;100.00;101899.38;6201222;28;20225;-75
2023/10/09 01:01:55;;;;;;;3.77;3.27;;;;;;;12.39;100.00;101894.09;6202191;28;20229;-75
2023/10/09 01:05:19;;;;;;;2.87;1.87;;;;;;;12.47;100.00;101875.41;6193182;28;20225;-75
2023/10/09 01:08:55;;;;;;;3.90;1.87;;;;;;;12.43;100.00;101873.94;6212344;28;20547;-75
2023/10/09 01:12:17;;;;;;;2.07;1.87;;;;;;;12.44;100.00;101878.34;6180478;28;20230;-75
2023/10/09 01:15:43;;;;;;;3.03;1.50;;;;;;;12.43;100.00;101880.19;6185490;28;20234;-75
2023/10/09 01:19:12;;;;;;;3.30;1.83;;;;;;;12.21;100.00;101868.50;6178380;28;20308;-75
2023/10/09 01:22:33;;;;;;;2.30;1.80;;;;;;;12.36;100.00;101864.59;6200512;28;20229;-75
2023/10/09 01:25:56;;;;;;;4.60;2.53;;;;;;;12.31;100.00;101855.97;6203611;28;20229;-75
2023/10/09 01:29:19;;;;;;;2.37;1.53;;;;;;;12.34;100.00;101855.75;6214087;28;20893;-74
2023/10/09 01:32:40;;;;;;;2.33;1.60;;;;;;;12.04;100.00;101842.81;6199960;28;20253;-74
2023/10/09 01:36:01;;;;;;;1.40;1.30;;;;;;;12.01;100.00;101840.38;6172270;28;20336;-75
2023/10/09 01:39:26;;;;;;;2.13;1.93;;;;;;;12.14;100.00;101845.69;6180458;28;20229;-74
2023/10/09 01:42:49;;;;;;;2.57;1.53;;;;;;;11.94;100.00;101842.72;6200413;28;20242;-74
2023/10/09 01:46:10;;;;;;;1.60;1.43;;;;;;;12.04;100.00;101849.09;6201073;28;20233;-74
2023/10/09 01:49:31;;;;;;;3.37;1.97;;;;;;;12.01;100.00;101834.97;6197526;28;20636;-75
2023/10/09 01:52:52;;;;;;;2.00;1.80;;;;;;;11.63;100.00;101829.00;6201767;28;20245;-74
2023/10/09 01:56:14;;;;;;;3.03;1.50;;;;;;;11.56;100.00;101803.44;6200618;28;20233;-74
2023/10/09 01:59:39;;;;;;;2.47;1.33;;;;;;;11.64;100.00;101823.47;6193283;28;20234;-74
2023/10/09 02:03:05;;;;;;;5.97;2.00;;;;;;;11.84;100.00;101817.41;6198518;28;20233;-74
2023/10/09 02:06:29;;;;;;;2.20;1.50;;;;;;;11.72;100.00;101807.53;6179576;28;20238;-74
2023/10/09 02:09:50;;;;;;;1.77;1.67;;;;;;;11.87;100.00;101782.03;6204077;28;20229;-74
2023/10/09 02:13:11;;;;;;;2.27;1.70;;;;;;;12.04;100.00;101784.25;6202392;28;20225;-75
2023/10/09 02:16:41;;;;;;;4.10;2.00;;;;;;;12.04;100.00;101775.25;6197121;28;20233;-74
2023/10/09 02:20:16;;;;;;;3.13;1.80;;;;;;;12.06;100.00;101765.19;6200331;28;20413;-74
2023/10/09 02:23:41;;;;;;;1.50;1.40;;;;;;;12.05;100.00;101798.63;6176485;28;20264;-75
2023/10/09 02:27:08;;;;;;;1.50;1.40;;;;;;;12.06;100.00;101776.00;6191707;28;20614;-74
2023/10/09 02:30:31;;;;;;;1.90;1.40;;;;;;;12.03;100.00;101758.22;6176043;28;20230;-74
2023/10/09 02:33:55;;;;;;;2.13;1.60;;;;;;;12.11;100.00;101795.41;6175968;28;20592;-74
2023/10/09 02:37:23;;;;;;;2.30;1.90;;;;;;;12.16;100.00;101809.41;6197713;28;20224;-74
2023/10/09 02:41:07;;;;;;;1.73;1.57;;;;;;;12.14;100.00;101811.38;6199850;28;20233;-74
2023/10/09 02:44:31;;;;;;;1.60;1.47;;;;;;;12.01;100.00;101768.25;6184655;28;20583;-74
2023/10/09 02:47:55;;;;;;;2.37;2.10;;;;;;;12.03;100.00;101757.34;6204821;28;20236;-74
2023/10/09 02:51:32;;;;;;;2.70;1.80;;;;;;;11.93;100.00;101737.47;6202680;28;20232;-74
2023/10/09 02:54:59;;;;;;;2.63;1.20;;;;;;;12.08;100.00;101746.16;6198146;28;20562;-74
2023/10/09 02:58:21;;;;;;;1.70;1.47;;;;;;;12.03;100.00;101751.94;6208326;28;20265;-73
2023/10/09 03:01:43;;;;;;;2.10;1.80;;;;;;;11.92;100.00;101750.09;6200003;28;20225;-75
2023/10/09 03:05:04;;;;;;;1.80;1.50;;;;;;;11.96;100.00;101750.69;6197752;28;20229;-74
2023/10/09 03:08:26;;;;;;;2.00;1.57;;;;;;;12.01;100.00;101741.22;6200671;28;20261;-74
2023/10/09 03:11:53;;;;;;;2.80;1.67;;;;;;;11.97;100.00;101731.66;6196787;28;20320;-74
2023/10/09 03:15:14;;;;;;;2.10;1.40;;;;;;;11.99;100.00;101739.66;6191153;28;20228;-74
2023/10/09 03:18:36;;;;;;;2.83;1.70;;;;;;;12.00;100.00;101731.41;6195645;28;21123;-74
2023/10/09 03:21:58;;;;;;;2.13;1.33;;;;;;;12.02;100.00;101707.84;6191265;28;20715;-74
2023/10/09 03:25:20;;;;;;;2.80;1.97;;;;;;;11.89;100.00;101703.56;6196321;28;20233;-75
2023/10/09 03:28:43;;;;;;;1.20;1.10;;;;;;;11.92;100.00;101687.94;6193292;28;20571;-75
2023/10/09 03:32:04;;;;;;;3.73;2.33;;;;;;;11.95;100.00;101694.97;6212431;28;20237;-76
2023/10/09 03:35:25;;;;;;;2.30;1.97;;;;;;;11.88;100.00;101702.69;6199705;28;20309;-74
2023/10/09 03:38:46;;;;;;;2.47;1.60;;;;;;;11.92;100.00;101700.59;6205777;28;20237;-74
2023/10/09 03:42:18;;;;;;;4.33;2.23;;;;;;;11.88;100.00;101702.69;6205277;28;20266;-74
2023/10/09 03:45:52;;;;;;;2.67;2.17;;;;;;;11.72;100.00;101698.66;6201072;28;20785;-74
2023/10/09 03:49:13;;;;;;;1.33;1.17;;;;;;;11.74;100.00;101688.59;6201307;28;20229;-74
2023/10/09 03:52:35;;;;;;;1.47;1.30;;;;;;;11.68;100.00;101684.50;6204585;28;20236;-75
2023/10/09 03:55:55;;;;;;;2.53;1.63;;;;;;;11.77;100.00;101678.38;6177363;28;20230;-74
2023/10/09 03:59:19;;;;;;;2.67;1.53;;;;;;;11.73;100.00;101684.16;6175904;28;20321;-74
2023/10/09 04:02:41;;;;;;;2.90;2.03;;;;;;;11.71;100.00;101683.41;6176398;28;20226;-75
2023/10/09 04:06:03;;;;;;;3.13;2.00;;;;;;;11.70;100.00;101689.81;6203101;28;20555;-74
2023/10/09 04:09:29;;;;;;;1.30;1.20;;;;;;;11.76;100.00;101692.03;6203796;28;20503;-74
2023/10/09 04:12:52;;;;;;;2.20;1.93;;;;;;;11.73;100.00;101674.22;6183702;28;20234;-73
2023/10/09 04:16:33;;;;;;;2.90;1.63;;;;;;;11.81;100.00;101670.88;6194550;28;20236;-74
2023/10/09 04:23:37;;;;;;;1.97;1.50;;;;;;;11.28;100.00;101665.19;6202545;28;20233;-74
2023/10/09 04:26:58;;;;;;;2.40;1.60;;;;;;;11.08;100.00;101668.63;6222743;28;20228;-74
2023/10/09 04:30:19;;;;;;;1.80;1.60;;;;;;;11.37;100.00;101673.59;6200297;28;20610;-74
2023/10/09 04:33:42;;;;;;;2.43;1.97;;;;;;;11.10;100.00;101660.41;6212632;28;20566;-74
2023/10/09 04:37:19;;;;;;;2.20;1.10;;;;;;;11.24;100.00;101646.69;6210800;28;20282;-74
2023/10/09 04:40:51;;;;;;;4.00;2.07;;;;;;;11.43;100.00;101649.63;6204989;28;20225;-74
2023/10/09 04:44:18;;;;;;;7.60;1.93;;;;;;;11.28;100.00;101661.66;6201683;28;20241;-74
2023/10/09 04:47:49;;;;;;;2.93;1.73;;;;;;;11.35;100.00;101664.75;6183119;28;20933;-74
2023/10/09 04:51:20;;;;;;;2.27;1.63;;;;;;;11.20;100.00;101656.84;6202656;28;20691;-74
2023/10/09 04:55:02;;;;;;;6.60;2.77;;;;;;;11.13;100.00;101662.88;6182930;28;20541;-75
2023/10/09 04:58:25;;;;;;;2.30;1.70;;;;;;;11.29;100.00;101668.78;6202787;28;20229;-74
2023/10/09 05:01:57;;;;;;;2.10;1.83;;;;;;;11.22;100.00;101671.09;6199620;28;20233;-73
2023/10/09 05:05:47;;;;;;;1.73;1.47;;;;;;;11.32;100.00;101675.78;6214499;28;20233;-74
2023/10/09 05:09:08;;;;;;;3.50;1.67;;;;;;;11.36;100.00;101674.53;6182681;28;20325;-70
2023/10/09 05:12:29;;;;;;;2.80;2.17;;;;;;;11.11;100.00;101641.41;6174017;28;20737;-72
2023/10/09 05:15:52;;;;;;;3.97;2.43;;;;;;;11.11;100.00;101633.31;6204075;28;20606;-73
2023/10/09 05:19:28;;;;;;;1.90;1.60;;;;;;;10.94;100.00;101623.00;6188539;28;20226;-70
2023/10/09 05:23:07;;;;;;;1.33;1.23;;;;;;;10.97;100.00;101622.72;6209802;28;20252;-71
2023/10/09 05:26:38;;;;;;;2.93;2.40;;;;;;;10.87;100.00;101624.44;6183492;28;20415;-70
2023/10/09 05:30:12;;;;;;;3.43;2.13;;;;;;;10.79;100.00;101624.19;6186357;28;20226;-70
2023/10/09 05:33:36;;;;;;;3.13;1.57;;;;;;;10.70;100.00;101624.88;6196164;28;20236;-69
2023/10/09 05:37:10;;;;;;;3.47;2.23;;;;;;;10.74;100.00;101612.91;6182826;28;20233;-69
2023/10/09 05:40:31;;;;;;;1.57;1.23;;;;;;;10.78;100.00;101611.69;6207106;28;20229;-69
2023/10/09 05:47:35;;;;;;;2.20;1.93;;;;;;;11.10;100.00;101623.50;6180316;28;20234;-71
2023/10/09 05:51:12;;;;;;;3.27;1.73;;;;;;;10.79;100.00;101636.78;6196491;28;20312;-70
2023/10/09 06:05:41;;;;;;;4.37;2.47;;;;;;;10.51;100.00;101619.22;6182268;28;20225;-69
2023/10/09 06:09:34;;;;;;;3.10;2.30;;;;;;;10.58;100.00;101628.53;6194761;28;20217;-70
2023/10/09 06:13:03;;;;;;;4.80;1.80;;;;;;;10.79;100.00;101647.56;6204922;28;20304;-73
2023/10/09 06:16:41;;;;;;;2.87;2.10;;;;;;;10.75;100.00;101648.78;6203182;28;20220;-74
2023/10/09 06:20:39;;;;;;;2.47;1.70;;;;;;;10.52;100.00;101628.13;6197245;28;20237;-78
2023/10/09 06:24:09;;;;;;;2.17;1.83;;;;;;;10.24;100.00;101618.63;6186707;28;20226;-78
2023/10/09 06:27:56;;;;;;;3.17;1.90;;;;;;;10.32;100.00;101635.06;6173396;28;20223;-74
2023/10/09 06:31:46;;;;;;;1.70;1.60;;;;;;;10.52;100.00;101623.59;6201858;28;20231;-74
2023/10/09 06:35:18;;;;;;;1.67;1.57;;;;;;;10.34;100.00;101606.16;6202311;28;20240;-69
2023/10/09 06:38:52;;;;;;;5.40;1.77;;;;;;;10.33;100.00;101602.59;6205736;28;20229;-72
2023/10/09 06:42:30;;;;;;;1.70;1.33;;;;;;;10.49;100.00;101604.13;6195836;28;20229;-70
2023/10/09 06:45:55;;;;;;;3.33;2.20;;;;;;;10.39;100.00;101596.72;6177813;28;20313;-73
2023/10/09 06:49:33;;;;;;;2.53;2.00;;;;;;;10.50;100.00;101590.53;6182005;28;20217;-71
2023/10/09 06:53:19;;;;;;;4.70;1.80;;;;;;;10.24;100.00;101589.81;6206348;28;20236;-73
2023/10/09 07:04:18;;;;;;;2.30;2.03;;;;;;;10.39;100.00;101593.16;6180872;28;20226;-72
2023/10/09 07:07:50;;;;;;;3.37;2.20;;;;;;;10.44;100.00;101570.28;6189458;28;20225;-73
2023/10/09 07:11:21;;;;;;;4.20;1.80;;;;;;;10.33;100.00;101580.16;6191998;28;20226;-72
2023/10/09 07:18:23;;;;;;;3.20;2.00;;;;;;;10.16;100.00;101602.13;6200449;28;20542;-72
2023/10/09 07:21:51;;;;;;;5.53;2.93;;;;;;;10.10;100.00;101598.09;6174143;28;20665;-74
2023/10/09 07:25:27;;;;;;;2.17;1.83;;;;;;;10.12;100.00;101595.25;6183002;28;20233;-73
2023/10/09 07:28:49;;;;;;;2.73;2.43;;;;;;;10.25;100.00;101583.47;6219891;28;20224;-72
2023/10/09 07:32:19;;;;;;;3.53;2.83;;;;;;;10.64;100.00;101587.59;6207189;28;20325;-73
2023/10/09 07:35:47;;;;;;;3.23;2.00;;;;;;;10.66;100.00;101593.72;6194239;28;20232;-71
2023/10/09 07:39:15;;;;;;;2.23;1.80;;;;;;;10.48;100.00;101581.69;6174744;28;20265;-71
2023/10/09 07:42:43;;;;;;;2.07;1.97;;;;;;;10.29;100.00;101590.31;6208982;28;20237;-73
2023/10/09 07:49:51;;;;;;;2.17;1.97;;;;;;;10.46;100.00;101575.56;6214259;28;20224;-70
2023/10/09 07:53:17;;;;;;;2.90;1.83;;;;;;;10.46;100.00;101580.94;6209162;28;20229;-69
2023/10/09 07:56:41;;;;;;;1.63;1.50;;;;;;;10.48;100.00;101589.78;6209272;28;20221;-69
2023/10/09 08:00:12;;;;;;;1.47;1.30;;;;;;;10.52;100.00;101582.31;6213498;28;20669;-76
2023/10/09 08:03:35;;;;;;;2.43;1.60;;;;;;;10.64;100.00;101582.22;6187246;28;20222;-73
2023/10/09 08:06:57;;;;;;;1.47;1.13;;;;;;;10.56;100.00;101571.16;6202154;28;20232;-73
2023/10/09 08:14:02;;;;;;;2.00;1.80;;;;;;;10.83;100.00;101568.16;6210978;28;20252;-70
2023/10/09 08:17:27;;;;;;;1.47;1.37;;;;;;;10.72;100.00;101579.78;6192065;28;20261;-70
2023/10/09 08:21:19;;;;;;;2.80;1.63;;;;;;;10.73;100.00;101577.94;6201534;28;20234;-71
2023/10/09 08:24:41;;;;;;;1.70;1.60;;;;;;;10.78;100.00;101576.63;6212726;28;20226;-69
2023/10/09 08:32:17;;;;;;;3.27;1.77;;;;;;;11.06;100.00;101580.69;6209726;28;20243;-70
2023/10/09 08:35:47;;;;;;;2.27;1.60;;;;;;;10.93;100.00;101594.28;6215132;28;20240;-69
2023/10/09 08:39:17;;;;;;;1.70;1.60;;;;;;;10.73;100.00;101586.91;6189061;28;20754;-70
2023/10/09 08:42:38;;;;;;;1.70;1.60;;;;;;;10.70;100.00;101581.72;6191025;28;20319;-70
2023/10/09 08:46:02;;;;;;;2.53;2.33;;;;;;;10.82;100.00;101588.03;6191910;28;20340;-71
2023/10/09 08:49:23;;;;;;;2.30;2.10;;;;;;;10.88;100.00;101579.44;6191580;28;20234;-71
2023/10/09 08:52:44;;;;;;;2.30;2.20;;;;;;;10.96;100.00;101572.47;6183890;28;20263;-71
2023/10/09 08:56:07;;;;;;;2.30;2.20;;;;;;;11.09;100.00;101575.06;6200204;28;20337;-70
2023/10/09 08:59:28;;;;;;;2.43;2.20;;;;;;;11.20;100.00;101575.06;6220474;28;20264;-71
2023/10/09 09:02:49;;;;;;;2.37;2.17;;;;;;;11.28;100.00;101572.59;6209711;28;20496;-71
2023/10/09 09:06:10;;;;;;;3.80;2.57;;;;;;;11.22;100.00;101576.63;6190078;28;20241;-71
2023/10/09 09:09:32;;;;;;;4.40;4.00;;;;;;;11.36;100.00;101580.06;6187308;28;20225;-70
2023/10/09 09:13:00;;;;;;;2.70;2.17;;;;;;;11.09;100.00;101573.22;6200764;28;20603;-70
2023/10/09 09:16:29;;;;;;;2.80;2.60;;;;;;;11.13;100.00;101569.28;6214858;28;20299;-71
2023/10/09 09:19:50;;;;;;;2.33;2.13;;;;;;;11.27;100.00;101574.44;6211410;28;20224;-70
2023/10/09 09:23:12;;;;;;;2.90;2.60;;;;;;;11.27;100.00;101573.56;6209557;28;20233;-71
2023/10/09 09:26:38;;;;;;;2.47;1.80;;;;;;;11.39;100.00;101563.63;6201029;28;20521;-71
2023/10/09 09:30:07;;;;;;;3.37;3.07;;;;;;;11.53;100.00;101566.06;6183317;28;20237;-71
2023/10/09 09:33:38;;;;;;;6.80;2.63;;;;;;;11.61;100.00;101574.38;6185021;28;20226;-71
2023/10/09 09:37:03;;;;;;;2.17;1.97;;;;;;;11.46;100.00;101570.22;6210769;28;20229;-71
2023/10/09 09:40:30;;;;;;;1.60;1.50;;;;;;;11.43;100.00;101565.09;6209792;28;20238;-71
2023/10/09 09:43:55;;;;;;;1.70;1.60;;;;;;;11.56;100.00;101557.69;6191095;28;20237;-71
2023/10/09 09:47:23;;;;;;;3.40;2.13;;;;;;;11.45;100.00;101552.34;6168836;28;20242;-70
2023/10/09 09:50:45;;;;;;;2.20;2.10;;;;;;;11.42;100.00;101556.13;6188384;28;20312;-71
2023/10/09 09:54:10;;;;;;;2.20;2.00;;;;;;;11.45;100.00;101558.59;6187921;28;20230;-71
2023/10/09 09:57:39;;;;;;;2.07;1.93;;;;;;;11.51;100.00;101560.78;6183940;28;20294;-71
2023/10/09 10:01:08;;;;;;;3.13;2.83;;;;;;;11.49;100.00;101553.78;6181341;28;20256;-71
2023/10/09 10:04:35;;;;;;;2.30;2.10;;;;;;;11.45;100.00;101557.72;6183647;28;20230;-71
2023/10/09 10:07:58;;;;;;;2.60;1.77;;;;;;;11.48;100.00;101549.38;6195640;28;20233;-69
2023/10/09 10:11:45;;;;;;;2.80;2.60;;;;;;;11.42;100.00;101541.78;6207071;28;21687;-71
2023/10/09 10:15:14;;;;;;;2.53;2.33;;;;;;;11.65;100.00;101540.75;6204218;28;20237;-74
2023/10/09 10:18:54;;;;;;;2.83;1.97;;;;;;;11.82;100.00;101542.94;6203184;28;20225;-71
2023/10/09 10:22:27;;;;;;;2.17;1.97;;;;;;;11.63;100.00;101542.72;6207572;28;20221;-71
2023/10/09 10:25:59;;;;;;;6.07;2.67;;;;;;;11.55;100.00;101540.66;6206378;28;20238;-71
2023/10/09 10:29:26;;;;;;;2.70;2.20;;;;;;;11.73;100.00;101541.84;6210006;28;20328;-72
2023/10/09 10:32:57;;;;;;;1.83;1.73;;;;;;;11.80;100.00;101543.06;6210458;28;20216;-73
2023/10/09 10:36:22;;;;;;;1.63;1.53;;;;;;;11.88;100.00;101546.00;6210018;28;20233;-72
2023/10/09 10:39:59;;;;;;;2.37;2.17;;;;;;;11.77;100.00;101545.16;6204084;28;20230;-74
2023/10/09 10:43:32;;;;;;;2.63;2.30;;;;;;;11.62;100.00;101541.00;6207064;28;20229;-72
2023/10/09 10:46:53;;;;;;;1.57;1.47;;;;;;;11.67;100.00;101545.06;6203959;28;20316;-74
2023/10/09 10:50:35;;;;;;;2.97;2.67;;;;;;;11.73;100.00;101541.00;6206472;28;20244;-73
2023/10/09 10:54:26;;;;;;;4.40;2.03;;;;;;;11.76;100.00;101540.75;6188602;28;20312;-70
2023/10/09 10:57:53;;;;;;;1.80;1.70;;;;;;;12.00;100.00;101538.69;6197375;28;20311;-75
2023/10/09 11:01:15;;;;;;;1.50;1.40;;;;;;;11.98;100.00;101544.22;6200861;28;20241;-72
2023/10/09 11:04:41;;;;;;;1.47;1.37;;;;;;;11.85;100.00;101551.63;6183830;28;20240;-76
2023/10/09 11:08:10;;;;;;;1.77;1.67;;;;;;;11.88;100.00;101539.72;6180742;28;21004;-73
2023/10/09 11:11:40;;;;;;;1.70;1.60;;;;;;;12.04;100.00;101542.84;6201032;28;20229;-74
2023/10/09 11:15:07;;;;;;;1.47;1.37;;;;;;;12.10;100.00;101544.19;6182745;28;20329;-74
2023/10/09 11:18:28;;;;;;;2.60;1.30;;;;;;;12.05;100.00;101541.88;6196356;28;20232;-74
2023/10/09 11:21:58;;;;;;;1.77;1.63;;;;;;;11.79;100.00;101533.25;6197610;28;20233;-71
2023/10/09 11:25:19;;;;;;;1.60;1.47;;;;;;;11.78;100.00;101522.56;6200119;28;20319;-74
2023/10/09 11:28:42;;;;;;;2.13;2.03;;;;;;;12.29;100.00;101528.97;6202103;28;20321;-73
2023/10/09 11:32:06;;;;;;;10.50;1.63;;;;;;;12.40;100.00;101525.34;6183422;28;20535;-69
2023/10/09 11:35:28;;;;;;;1.70;1.60;;;;;;;12.49;100.00;101530.84;6199091;28;20218;-72
2023/10/09 11:38:51;;;;;;;1.70;1.60;;;;;;;12.39;100.00;101529.06;6177137;28;20263;-75
2023/10/09 11:42:30;;;;;;;1.90;1.70;;;;;;;12.57;100.00;101536.44;6185436;28;20628;-71
2023/10/09 11:45:55;;;;;;;2.40;2.20;;;;;;;12.34;100.00;101540.25;6167536;28;20230;-73
2023/10/09 11:49:34;;;;;;;2.33;2.13;;;;;;;12.40;100.00;101526.22;6194371;28;20230;-74
2023/10/09 11:56:35;;;;;;;1.47;1.37;;;;;;;12.35;100.00;101525.72;6193979;28;20229;-72
2023/10/09 11:59:56;;;;;;;1.90;1.80;;;;;;;12.32;100.00;101528.72;6206182;28;20237;-72
2023/10/09 12:03:17;;;;;;;1.23;1.10;;;;;;;12.49;100.00;101525.44;6205619;28;20228;-72
2023/10/09 12:06:39;;;;;;;1.40;1.30;;;;;;;12.36;100.00;101523.91;6201945;28;21246;-72
2023/10/09 12:10:00;;;;;;;1.60;1.03;;;;;;;12.27;100.00;101519.25;6207396;28;20229;-75
2023/10/09 12:13:22;;;;;;;1.10;1.10;;;;;;;12.26;100.00;101512.16;6204704;28;20221;-74
2023/10/09 12:16:49;;;;;;;0.93;0.93;;;;;;;12.31;100.00;101516.16;6209346;28;20328;-73
2023/10/09 12:20:14;;;;;;;1.37;1.27;;;;;;;12.43;100.00;101514.28;6179226;28;20242;-73
2023/10/09 12:23:36;;;;;;;0.93;0.87;;;;;;;12.27;100.00;101506.59;6185601;28;20225;-73
2023/10/09 12:26:57;;;;;;;1.40;1.30;;;;;;;12.24;100.00;101501.47;6180050;28;20229;-73
2023/10/09 12:30:26;;;;;;;1.30;1.10;;;;;;;12.50;100.00;101510.03;6203530;28;20232;-72
2023/10/09 12:33:49;;;;;;;2.63;1.70;;;;;;;12.64;100.00;101520.53;6178668;28;20614;-70
2023/10/09 12:37:10;;;;;;;1.30;1.20;;;;;;;12.45;100.00;101509.59;6200408;28;20229;-73
2023/10/09 12:40:32;;;;;;;1.13;1.13;;;;;;;12.55;100.00;101524.91;6181488;28;20234;-71
2023/10/09 12:43:53;;;;;;;1.23;1.23;;;;;;;12.62;100.00;101514.41;6196816;28;20230;-74
2023/10/09 12:47:15;;;;;;;1.37;1.27;;;;;;;12.81;100.00;101526.16;6187131;28;20331;-75
2023/10/09 12:50:41;;;;;;;1.30;1.20;;;;;;;12.82;100.00;101525.19;6205300;28;20229;-74
2023/10/09 12:54:02;;;;;;;1.67;1.57;;;;;;;12.92;100.00;101527.06;6207218;28;20228;-80
2023/10/09 12:57:25;;;;;;;1.17;1.07;;;;;;;13.09;100.00;101512.94;6206676;28;20225;-76
2023/10/09 13:00:49;;;;;;;2.33;2.20;;;;;;;13.26;100.00;101515.84;6220228;28;20232;-73
2023/10/09 13:04:11;;;;;;;1.10;1.10;;;;;;;13.20;100.00;101510.13;6183743;28;20237;-74
2023/10/09 13:07:33;;;;;;;1.70;1.60;;;;;;;13.19;100.00;101503.00;6194577;28;20230;-80
2023/10/09 13:11:00;;;;;;;1.53;1.43;;;;;;;13.25;100.00;101507.84;6191714;28;20232;-72
2023/10/09 13:14:22;;;;;;;1.83;1.53;;;;;;;13.44;100.00;101511.47;6197976;28;20232;-71
2023/10/09 13:17:43;;;;;;;1.27;1.20;;;;;;;13.34;100.00;101515.16;6202382;28;20233;-70
2023/10/09 13:21:04;;;;;;;1.40;1.30;;;;;;;13.43;100.00;101507.03;6203624;28;20233;-72
2023/10/09 13:24:29;;;;;;;2.00;1.90;;;;;;;13.44;100.00;101507.91;6199172;28;20232;-70
2023/10/09 13:27:50;;;;;;;2.07;1.97;;;;;;;13.49;100.00;101506.50;6201740;28;20237;-73
2023/10/09 13:31:14;;;;;;;1.60;1.40;;;;;;;13.35;100.00;101503.34;6194412;28;20246;-73
2023/10/09 13:34:35;;;;;;;1.97;1.80;;;;;;;13.54;100.00;101508.78;6198478;28;20233;-74
2023/10/09 13:37:56;;;;;;;2.87;2.10;;;;;;;13.52;100.00;101506.22;6192536;28;20252;-75
2023/10/09 13:41:17;;;;;;;1.37;1.27;;;;;;;13.59;100.00;101515.50;6185557;28;20234;-76
2023/10/09 13:44:41;;;;;;;1.90;1.80;;;;;;;13.40;100.00;101512.75;6173936;28;20234;-72
2023/10/09 13:48:04;;;;;;;2.93;1.60;;;;;;;13.61;100.00;101513.53;6200551;28;20256;-72
2023/10/09 13:51:25;;;;;;;2.23;2.03;;;;;;;13.81;100.00;101508.13;6197383;28;20221;-76
2023/10/09 13:54:49;;;;;;;2.10;1.90;;;;;;;13.76;100.00;101499.56;6203401;28;20225;-76
2023/10/09 13:58:20;;;;;;;2.70;2.50;;;;;;;13.73;100.00;101506.09;6198821;28;20323;-72
2023/10/09 14:01:47;;;;;;;2.30;2.10;;;;;;;13.84;100.00;101500.56;6201089;28;20534;-76
2023/10/09 14:05:10;;;;;;;2.60;2.40;;;;;;;13.80;100.00;101504.56;6189430;28;20229;-75
2023/10/09 14:08:30;;;;;;;2.50;2.30;;;;;;;13.63;100.00;101508.81;6206183;28;20245;-75
2023/10/09 14:11:52;;;;;;;1.83;1.73;;;;;;;13.60;100.00;101498.25;6200066;28;20233;-77
2023/10/09 14:15:17;;;;;;;1.90;1.80;;;;;;;13.62;100.00;101501.66;6204932;28;20233;-73
2023/10/09 14:18:38;;;;;;;2.37;2.17;;;;;;;13.58;100.00;101499.38;6177112;28;20291;-78
2023/10/09 14:22:05;;;;;;;3.67;2.83;;;;;;;13.53;100.00;101501.66;6187470;28;21086;-72
2023/10/09 14:25:29;;;;;;;2.57;2.23;;;;;;;13.77;100.00;101510.25;6188810;28;20566;-73
2023/10/09 14:28:52;;;;;;;2.30;2.20;;;;;;;13.95;100.00;101507.69;6180401;28;20266;-72
2023/10/09 14:32:13;;;;;;;5.40;2.63;;;;;;;13.97;100.00;101503.84;6196799;28;20237;-73
2023/10/09 14:35:36;;;;;;;3.73;3.47;;;;;;;14.03;100.00;101502.41;6206458;28;20246;-73
2023/10/09 14:38:58;;;;;;;3.20;2.73;;;;;;;14.02;100.00;101493.41;6182870;28;20525;-73
2023/10/09 14:42:20;;;;;;;2.70;2.50;;;;;;;13.89;100.00;101500.13;6184895;28;20320;-72
2023/10/09 14:45:41;;;;;;;3.87;3.10;;;;;;;13.86;100.00;101508.53;6193168;28;20225;-73
2023/10/09 14:49:02;;;;;;;3.80;3.00;;;;;;;13.76;100.00;101495.00;6208838;28;20791;-71
2023/10/09 14:52:24;;;;;;;2.77;2.57;;;;;;;13.82;100.00;101507.13;6184150;28;20221;-72
2023/10/09 14:55:47;;;;;;;2.60;2.40;;;;;;;13.95;100.00;101507.69;6193445;28;20233;-71
2023/10/09 14:59:10;;;;;;;3.37;3.10;;;;;;;14.03;100.00;101511.41;6201812;28;20261;-71
2023/10/09 15:02:31;;;;;;;3.10;2.90;;;;;;;14.02;100.00;101506.97;6200112;28;20288;-72
2023/10/09 15:05:54;;;;;;;4.10;3.73;;;;;;;14.04;100.00;101506.84;6201609;28;20253;-73
2023/10/09 15:09:21;;;;;;;3.60;3.30;;;;;;;14.02;100.00;101511.53;6200931;28;20336;-73
2023/10/09 15:12:46;;;;;;;3.20;2.90;;;;;;;14.12;100.00;101515.13;6199954;28;20246;-72
2023/10/09 15:16:10;;;;;;;4.00;3.53;;;;;;;14.07;100.00;101518.25;6202788;28;20232;-72
2023/10/09 15:19:31;;;;;;;3.83;3.00;;;;;;;14.14;100.00;101522.09;6200785;28;20240;-72
2023/10/09 15:22:52;;;;;;;3.23;3.03;;;;;;;14.28;100.00;101523.53;6197296;28;20221;-71
2023/10/09 15:26:17;;;;;;;3.03;2.77;;;;;;;14.21;100.00;101531.38;6208549;28;20312;-72
2023/10/09 15:29:43;;;;;;;4.00;3.70;;;;;;;14.18;100.00;101528.09;6211803;28;20246;-71
2023/10/09 15:33:05;;;;;;;3.13;2.90;;;;;;;14.17;100.00;101529.09;6205293;28;20229;-72
2023/10/09 15:36:28;;;;;;;4.20;3.80;;;;;;;14.14;100.00;101532.94;6188467;28;20500;-73
2023/10/09 15:39:49;;;;;;;5.73;4.17;;;;;;;14.09;100.00;101531.66;6203901;28;20233;-71
2023/10/09 15:43:13;;;;;;;4.13;3.77;;;;;;;14.04;100.00;101521.25;6205092;28;20240;-71
2023/10/09 15:46:35;;;;;;;4.90;4.50;;;;;;;13.93;100.00;101539.50;6196773;28;20234;-73
2023/10/09 15:49:56;;;;;;;5.43;4.97;;;;;;;13.87;100.00;101538.19;6192179;28;20238;-72
2023/10/09 15:53:17;;;;;;;5.30;4.90;;;;;;;13.91;100.00;101542.38;6198195;28;20233;-72
2023/10/09 15:56:41;;;;;;;5.00;4.60;;;;;;;14.06;100.00;101540.09;6189580;28;20515;-73
2023/10/09 16:00:13;;;;;;;5.57;4.90;;;;;;;13.94;100.00;101544.78;6198254;28;20213;-72
2023/10/09 16:03:35;;;;;;;5.60;5.17;;;;;;;14.05;100.00;101541.94;6207695;28;20221;-72
2023/10/09 16:06:56;;;;;;;5.97;5.47;;;;;;;13.96;100.00;101547.34;6208325;28;20233;-73
2023/10/09 16:10:17;;;;;;;5.87;5.37;;;;;;;14.06;100.00;101556.38;6207847;28;20317;-72
2023/10/09 16:13:38;;;;;;;6.37;5.77;;;;;;;14.02;100.00;101544.94;6187848;28;20234;-72
2023/10/09 16:16:59;;;;;;;6.07;5.57;;;;;;;14.08;100.00;101551.66;6200980;28;20308;-74
2023/10/09 16:20:25;;;;;;;6.27;5.77;;;;;;;14.14;100.00;101554.63;6204808;28;20229;-72
2023/10/09 16:23:48;;;;;;;4.73;4.33;;;;;;;14.12;100.00;101563.94;6204861;28;20233;-73
2023/10/09 16:27:13;;;;;;;5.73;5.23;;;;;;;14.14;100.00;101557.34;6206806;28;20763;-72
2023/10/09 16:30:35;;;;;;;5.37;4.97;;;;;;;14.19;100.00;101562.34;6199185;28;20222;-71
2023/10/09 16:33:57;;;;;;;5.40;5.00;;;;;;;14.21;100.00;101563.06;6207775;28;20233;-73